sensor_id;sensor_type;location;lat;lon;timestamp;temperature;humidity
18581;DHT22;9420;50.876;7.012;2023-02-19T00:01:20;10.20;99.90
18581;DHT22;9420;50.876;7.012;2023-02-19T00:03:50;10.30;99.90
18581;DHT22;9420;50.876;7.012;2023-02-19T00:06:19;10.30;99.90
18581;DHT22;9420;50.876;7.012;2023-02-19T00:08:47;10.30;99.90
18581;DHT22;9420;50.876;7.012;2023-02-19T00:11:16;10.30;99.90
18581;DHT22;9420;50.876;7.012;2023-02-19T00:13:46;10.30;99.90
18581;DHT22;9420;50.876;7.012;2023-02-19T00:16:18;10.30;99.90
18581;DHT22;9420;50.876;7.012;2023-02-19T00:18:47;10.30;99.90
18581;DHT22;9420;50.876;7.012;2023-02-19T00:21:15;10.40;99.90
18581;DHT22;9420;50.876;7.012;2023-02-19T00:23:47;10.30;99.90
18581;DHT22;9420;50.876;7.012;2023-02-19T00:26:15;10.30;99.90
18581;DHT22;9420;50.876;7.012;2023-02-19T00:28:42;10.30;99.90
18581;DHT22;9420;50.876;7.012;2023-02-19T00:31:15;10.30;99.90
18581;DHT22;9420;50.876;7.012;2023-02-19T00:33:45;10.30;99.90
18581;DHT22;9420;50.876;7.012;2023-02-19T00:36:14;10.30;99.90
18581;DHT22;9420;50.876;7.012;2023-02-19T00:38:42;10.30;99.90
18581;DHT22;9420;50.876;7.012;2023-02-19T00:41:11;10.30;99.90
18581;DHT22;9420;50.876;7.012;2023-02-19T00:43:47;10.30;99.90
18581;DHT22;9420;50.876;7.012;2023-02-19T00:46:16;10.30;99.90
18581;DHT22;9420;50.876;7.012;2023-02-19T00:48:46;10.30;99.90
18581;DHT22;9420;50.876;7.012;2023-02-19T00:51:14;10.30;99.90
18581;DHT22;9420;50.876;7.012;2023-02-19T00:53:41;10.30;99.90
18581;DHT22;9420;50.876;7.012;2023-02-19T00:56:09;10.40;99.90
18581;DHT22;9420;50.876;7.012;2023-02-19T00:58:37;10.40;99.90
18581;DHT22;9420;50.876;7.012;2023-02-19T01:01:04;10.40;99.90
18581;DHT22;9420;50.876;7.012;2023-02-19T01:03:32;10.40;99.90
18581;DHT22;9420;50.876;7.012;2023-02-19T01:06:02;10.40;99.90
18581;DHT22;9420;50.876;7.012;2023-02-19T01:08:31;10.50;99.90
18581;DHT22;9420;50.876;7.012;2023-02-19T01:10:58;10.50;99.90
18581;DHT22;9420;50.876;7.012;2023-02-19T01:13:26;10.40;99.90
18581;DHT22;9420;50.876;7.012;2023-02-19T01:16:02;10.40;99.90
18581;DHT22;9420;50.876;7.012;2023-02-19T01:18:30;10.40;99.90
18581;DHT22;9420;50.876;7.012;2023-02-19T01:20:57;10.40;99.90
18581;DHT22;9420;50.876;7.012;2023-02-19T01:23:26;10.50;99.90
18581;DHT22;9420;50.876;7.012;2023-02-19T01:25:53;10.50;99.90
18581;DHT22;9420;50.876;7.012;2023-02-19T01:28:20;10.60;99.90
18581;DHT22;9420;50.876;7.012;2023-02-19T01:30:48;10.60;99.90
18581;DHT22;9420;50.876;7.012;2023-02-19T01:33:14;10.50;99.90
18581;DHT22;9420;50.876;7.012;2023-02-19T01:35:42;10.50;99.90
18581;DHT22;9420;50.876;7.012;2023-02-19T01:38:09;10.60;99.90
18581;DHT22;9420;50.876;7.012;2023-02-19T01:40:38;10.60;99.90
18581;DHT22;9420;50.876;7.012;2023-02-19T01:43:10;10.50;99.90
18581;DHT22;9420;50.876;7.012;2023-02-19T01:45:42;10.60;99.90
18581;DHT22;9420;50.876;7.012;2023-02-19T01:48:12;10.60;99.90
18581;DHT22;9420;50.876;7.012;2023-02-19T01:50:46;10.60;99.90
18581;DHT22;9420;50.876;7.012;2023-02-19T01:53:18;10.60;99.90
18581;DHT22;9420;50.876;7.012;2023-02-19T01:55:52;10.60;99.90
18581;DHT22;9420;50.876;7.012;2023-02-19T01:58:23;10.60;99.90
18581;DHT22;9420;50.876;7.012;2023-02-19T02:00:54;10.60;99.90
18581;DHT22;9420;50.876;7.012;2023-02-19T02:03:21;10.70;99.90
18581;DHT22;9420;50.876;7.012;2023-02-19T02:05:54;10.70;99.90
18581;DHT22;9420;50.876;7.012;2023-02-19T02:08:26;10.70;99.90
18581;DHT22;9420;50.876;7.012;2023-02-19T02:11:14;10.70;99.90
18581;DHT22;9420;50.876;7.012;2023-02-19T02:13:42;10.70;99.90
18581;DHT22;9420;50.876;7.012;2023-02-19T02:16:20;10.70;99.90
18581;DHT22;9420;50.876;7.012;2023-02-19T02:18:58;10.80;99.90
18581;DHT22;9420;50.876;7.012;2023-02-19T02:21:56;10.80;99.90
18581;DHT22;9420;50.876;7.012;2023-02-19T02:24:55;10.80;99.90
18581;DHT22;9420;50.876;7.012;2023-02-19T02:27:54;10.80;99.90
18581;DHT22;9420;50.876;7.012;2023-02-19T02:30:36;10.80;99.90
18581;DHT22;9420;50.876;7.012;2023-02-19T02:33:16;10.80;99.90
18581;DHT22;9420;50.876;7.012;2023-02-19T02:35:57;10.80;99.90
18581;DHT22;9420;50.876;7.012;2023-02-19T02:38:38;10.80;99.90
18581;DHT22;9420;50.876;7.012;2023-02-19T02:41:09;10.80;99.90
18581;DHT22;9420;50.876;7.012;2023-02-19T02:43:38;10.80;99.90
18581;DHT22;9420;50.876;7.012;2023-02-19T02:46:10;10.80;99.90
18581;DHT22;9420;50.876;7.012;2023-02-19T02:48:41;10.70;99.90
18581;DHT22;9420;50.876;7.012;2023-02-19T02:51:15;10.60;99.90
18581;DHT22;9420;50.876;7.012;2023-02-19T02:53:49;10.60;99.90
18581;DHT22;9420;50.876;7.012;2023-02-19T02:56:38;10.50;99.90
18581;DHT22;9420;50.876;7.012;2023-02-19T02:59:09;10.50;99.90
18581;DHT22;9420;50.876;7.012;2023-02-19T03:01:41;10.50;99.90
18581;DHT22;9420;50.876;7.012;2023-02-19T03:04:34;10.40;99.90
18581;DHT22;9420;50.876;7.012;2023-02-19T03:07:31;10.40;99.90
18581;DHT22;9420;50.876;7.012;2023-02-19T03:10:02;10.40;99.90
18581;DHT22;9420;50.876;7.012;2023-02-19T03:12:35;10.40;99.90
18581;DHT22;9420;50.876;7.012;2023-02-19T03:15:23;10.30;99.90
18581;DHT22;9420;50.876;7.012;2023-02-19T03:18:16;10.40;99.90
18581;DHT22;9420;50.876;7.012;2023-02-19T03:21:03;10.30;99.90
18581;DHT22;9420;50.876;7.012;2023-02-19T03:23:34;10.40;99.90
18581;DHT22;9420;50.876;7.012;2023-02-19T03:26:20;10.40;99.90
18581;DHT22;9420;50.876;7.012;2023-02-19T03:28:50;10.40;99.90
18581;DHT22;9420;50.876;7.012;2023-02-19T03:31:37;10.40;99.90
18581;DHT22;9420;50.876;7.012;2023-02-19T03:34:11;10.40;99.90
18581;DHT22;9420;50.876;7.012;2023-02-19T03:36:43;10.40;99.90
18581;DHT22;9420;50.876;7.012;2023-02-19T03:39:17;10.40;99.90
18581;DHT22;9420;50.876;7.012;2023-02-19T03:41:52;10.40;99.90
18581;DHT22;9420;50.876;7.012;2023-02-19T03:44:33;10.40;99.90
18581;DHT22;9420;50.876;7.012;2023-02-19T03:47:13;10.40;99.90
18581;DHT22;9420;50.876;7.012;2023-02-19T03:49:48;10.40;99.90
18581;DHT22;9420;50.876;7.012;2023-02-19T03:52:24;10.40;99.90
18581;DHT22;9420;50.876;7.012;2023-02-19T03:55:05;10.40;99.90
18581;DHT22;9420;50.876;7.012;2023-02-19T03:57:42;10.40;99.90
18581;DHT22;9420;50.876;7.012;2023-02-19T04:00:17;10.40;99.90
18581;DHT22;9420;50.876;7.012;2023-02-19T04:02:49;10.40;99.90
18581;DHT22;9420;50.876;7.012;2023-02-19T04:05:49;10.40;99.90
18581;DHT22;9420;50.876;7.012;2023-02-19T04:08:21;10.40;99.90
18581;DHT22;9420;50.876;7.012;2023-02-19T04:10:52;10.40;99.90
18581;DHT22;9420;50.876;7.012;2023-02-19T04:13:23;10.40;99.90
18581;DHT22;9420;50.876;7.012;2023-02-19T04:15:57;10.50;99.90
18581;DHT22;9420;50.876;7.012;2023-02-19T04:18:30;10.50;99.90
18581;DHT22;9420;50.876;7.012;2023-02-19T04:21:04;10.40;99.90
18581;DHT22;9420;50.876;7.012;2023-02-19T04:23:35;10.40;99.90
18581;DHT22;9420;50.876;7.012;2023-02-19T04:26:06;10.30;99.90
18581;DHT22;9420;50.876;7.012;2023-02-19T04:28:34;10.20;99.90
18581;DHT22;9420;50.876;7.012;2023-02-19T04:31:03;10.20;99.90
18581;DHT22;9420;50.876;7.012;2023-02-19T04:33:30;10.10;99.90
18581;DHT22;9420;50.876;7.012;2023-02-19T04:35:57;10.10;99.90
18581;DHT22;9420;50.876;7.012;2023-02-19T04:38:26;10.20;99.90
18581;DHT22;9420;50.876;7.012;2023-02-19T04:40:53;10.20;99.90
18581;DHT22;9420;50.876;7.012;2023-02-19T04:43:20;10.20;99.90
18581;DHT22;9420;50.876;7.012;2023-02-19T04:45:47;10.20;99.90
18581;DHT22;9420;50.876;7.012;2023-02-19T04:48:14;10.20;99.90
18581;DHT22;9420;50.876;7.012;2023-02-19T04:50:41;10.20;99.90
18581;DHT22;9420;50.876;7.012;2023-02-19T04:53:08;10.10;99.90
18581;DHT22;9420;50.876;7.012;2023-02-19T04:55:37;10.10;99.90
18581;DHT22;9420;50.876;7.012;2023-02-19T04:58:04;10.10;99.90
18581;DHT22;9420;50.876;7.012;2023-02-19T05:00:31;10.00;99.90
18581;DHT22;9420;50.876;7.012;2023-02-19T05:02:59;10.10;99.90
18581;DHT22;9420;50.876;7.012;2023-02-19T05:05:26;10.10;99.90
18581;DHT22;9420;50.876;7.012;2023-02-19T05:07:53;10.10;99.90
18581;DHT22;9420;50.876;7.012;2023-02-19T05:10:20;10.10;99.90
18581;DHT22;9420;50.876;7.012;2023-02-19T05:12:49;10.10;99.90
18581;DHT22;9420;50.876;7.012;2023-02-19T05:15:16;10.10;99.90
18581;DHT22;9420;50.876;7.012;2023-02-19T05:17:43;10.00;99.90
18581;DHT22;9420;50.876;7.012;2023-02-19T05:20:10;10.00;99.90
18581;DHT22;9420;50.876;7.012;2023-02-19T05:22:38;10.00;99.90
18581;DHT22;9420;50.876;7.012;2023-02-19T05:25:05;9.90;99.90
18581;DHT22;9420;50.876;7.012;2023-02-19T05:27:33;9.90;99.90
18581;DHT22;9420;50.876;7.012;2023-02-19T05:30:01;9.90;99.90
18581;DHT22;9420;50.876;7.012;2023-02-19T05:32:28;9.90;99.90
18581;DHT22;9420;50.876;7.012;2023-02-19T05:34:55;9.90;99.90
18581;DHT22;9420;50.876;7.012;2023-02-19T05:37:22;9.90;99.90
18581;DHT22;9420;50.876;7.012;2023-02-19T05:39:49;9.90;99.90
18581;DHT22;9420;50.876;7.012;2023-02-19T05:42:16;9.90;99.90
18581;DHT22;9420;50.876;7.012;2023-02-19T05:44:43;9.90;99.90
18581;DHT22;9420;50.876;7.012;2023-02-19T05:47:11;9.90;99.90
18581;DHT22;9420;50.876;7.012;2023-02-19T05:49:39;9.80;99.90
18581;DHT22;9420;50.876;7.012;2023-02-19T05:52:06;9.90;99.90
18581;DHT22;9420;50.876;7.012;2023-02-19T05:54:33;9.90;99.90
18581;DHT22;9420;50.876;7.012;2023-02-19T05:56:59;9.80;99.90
18581;DHT22;9420;50.876;7.012;2023-02-19T05:59:26;9.80;99.90
18581;DHT22;9420;50.876;7.012;2023-02-19T06:01:54;9.80;99.90
18581;DHT22;9420;50.876;7.012;2023-02-19T06:04:24;9.70;99.90
18581;DHT22;9420;50.876;7.012;2023-02-19T06:06:51;9.70;99.90
18581;DHT22;9420;50.876;7.012;2023-02-19T06:09:18;9.70;99.90
18581;DHT22;9420;50.876;7.012;2023-02-19T06:11:45;9.80;99.90
18581;DHT22;9420;50.876;7.012;2023-02-19T06:14:12;9.80;99.90
18581;DHT22;9420;50.876;7.012;2023-02-19T06:16:39;9.80;99.90
18581;DHT22;9420;50.876;7.012;2023-02-19T06:19:07;9.80;99.90
18581;DHT22;9420;50.876;7.012;2023-02-19T06:21:35;9.70;99.90
18581;DHT22;9420;50.876;7.012;2023-02-19T06:24:06;9.70;99.90
18581;DHT22;9420;50.876;7.012;2023-02-19T06:26:34;9.70;99.90
18581;DHT22;9420;50.876;7.012;2023-02-19T06:29:02;9.70;99.90
18581;DHT22;9420;50.876;7.012;2023-02-19T06:31:29;9.70;99.90
18581;DHT22;9420;50.876;7.012;2023-02-19T06:33:56;9.70;99.90
18581;DHT22;9420;50.876;7.012;2023-02-19T06:36:23;9.70;99.90
18581;DHT22;9420;50.876;7.012;2023-02-19T06:38:52;9.70;99.90
18581;DHT22;9420;50.876;7.012;2023-02-19T06:41:19;9.70;99.90
18581;DHT22;9420;50.876;7.012;2023-02-19T06:43:46;9.70;99.90
18581;DHT22;9420;50.876;7.012;2023-02-19T06:46:13;9.70;99.90
18581;DHT22;9420;50.876;7.012;2023-02-19T06:48:42;9.70;99.90
18581;DHT22;9420;50.876;7.012;2023-02-19T06:51:11;9.70;99.90
18581;DHT22;9420;50.876;7.012;2023-02-19T06:53:39;9.80;99.90
18581;DHT22;9420;50.876;7.012;2023-02-19T06:56:22;9.70;99.90
18581;DHT22;9420;50.876;7.012;2023-02-19T06:58:51;9.70;99.90
18581;DHT22;9420;50.876;7.012;2023-02-19T07:01:19;9.70;99.90
18581;DHT22;9420;50.876;7.012;2023-02-19T07:03:47;9.70;99.90
18581;DHT22;9420;50.876;7.012;2023-02-19T07:06:15;9.70;99.90
18581;DHT22;9420;50.876;7.012;2023-02-19T07:08:42;9.70;99.90
18581;DHT22;9420;50.876;7.012;2023-02-19T07:11:10;9.70;99.90
18581;DHT22;9420;50.876;7.012;2023-02-19T07:13:37;9.70;99.90
18581;DHT22;9420;50.876;7.012;2023-02-19T07:16:06;9.70;99.90
18581;DHT22;9420;50.876;7.012;2023-02-19T07:18:36;9.80;99.90
18581;DHT22;9420;50.876;7.012;2023-02-19T07:21:05;9.90;99.90
18581;DHT22;9420;50.876;7.012;2023-02-19T07:23:34;9.80;99.90
18581;DHT22;9420;50.876;7.012;2023-02-19T07:26:01;9.70;99.90
18581;DHT22;9420;50.876;7.012;2023-02-19T07:28:30;9.70;99.90
18581;DHT22;9420;50.876;7.012;2023-02-19T07:30:59;9.70;99.90
18581;DHT22;9420;50.876;7.012;2023-02-19T07:33:27;9.70;99.90
18581;DHT22;9420;50.876;7.012;2023-02-19T07:35:54;9.70;99.90
18581;DHT22;9420;50.876;7.012;2023-02-19T07:38:24;9.60;99.90
18581;DHT22;9420;50.876;7.012;2023-02-19T07:40:52;9.60;99.90
18581;DHT22;9420;50.876;7.012;2023-02-19T07:43:20;9.60;99.90
18581;DHT22;9420;50.876;7.012;2023-02-19T07:45:49;9.60;99.90
18581;DHT22;9420;50.876;7.012;2023-02-19T07:48:16;9.60;99.90
18581;DHT22;9420;50.876;7.012;2023-02-19T07:50:50;9.60;99.90
18581;DHT22;9420;50.876;7.012;2023-02-19T07:53:17;9.60;99.90
18581;DHT22;9420;50.876;7.012;2023-02-19T07:55:45;9.60;99.90
18581;DHT22;9420;50.876;7.012;2023-02-19T07:58:12;9.70;99.90
18581;DHT22;9420;50.876;7.012;2023-02-19T08:00:39;9.70;99.90
18581;DHT22;9420;50.876;7.012;2023-02-19T08:03:09;9.70;99.90
18581;DHT22;9420;50.876;7.012;2023-02-19T08:05:38;9.70;99.90
18581;DHT22;9420;50.876;7.012;2023-02-19T08:08:07;9.80;99.90
18581;DHT22;9420;50.876;7.012;2023-02-19T08:10:35;9.80;99.90
18581;DHT22;9420;50.876;7.012;2023-02-19T08:13:21;9.80;99.90
18581;DHT22;9420;50.876;7.012;2023-02-19T08:15:51;9.80;99.90
18581;DHT22;9420;50.876;7.012;2023-02-19T08:18:23;9.80;99.90
18581;DHT22;9420;50.876;7.012;2023-02-19T08:20:53;9.80;99.90
18581;DHT22;9420;50.876;7.012;2023-02-19T08:23:21;9.80;99.90
18581;DHT22;9420;50.876;7.012;2023-02-19T08:25:50;9.90;99.90
18581;DHT22;9420;50.876;7.012;2023-02-19T08:28:19;9.80;99.90
18581;DHT22;9420;50.876;7.012;2023-02-19T08:30:46;9.80;99.90
18581;DHT22;9420;50.876;7.012;2023-02-19T08:33:15;9.80;99.90
18581;DHT22;9420;50.876;7.012;2023-02-19T08:35:45;9.80;99.90
18581;DHT22;9420;50.876;7.012;2023-02-19T08:38:13;9.90;99.90
18581;DHT22;9420;50.876;7.012;2023-02-19T08:40:41;9.90;99.90
18581;DHT22;9420;50.876;7.012;2023-02-19T08:43:10;9.90;99.90
18581;DHT22;9420;50.876;7.012;2023-02-19T08:45:40;10.00;99.90
18581;DHT22;9420;50.876;7.012;2023-02-19T08:48:09;10.00;99.90
18581;DHT22;9420;50.876;7.012;2023-02-19T08:50:37;10.00;99.90
18581;DHT22;9420;50.876;7.012;2023-02-19T08:53:06;10.00;99.90
18581;DHT22;9420;50.876;7.012;2023-02-19T08:55:35;10.10;99.90
18581;DHT22;9420;50.876;7.012;2023-02-19T08:58:03;10.10;99.90
18581;DHT22;9420;50.876;7.012;2023-02-19T09:00:36;10.20;99.90
18581;DHT22;9420;50.876;7.012;2023-02-19T09:03:03;10.20;99.90
18581;DHT22;9420;50.876;7.012;2023-02-19T09:05:30;10.20;99.90
18581;DHT22;9420;50.876;7.012;2023-02-19T09:07:57;10.30;99.90
18581;DHT22;9420;50.876;7.012;2023-02-19T09:10:26;10.40;99.90
18581;DHT22;9420;50.876;7.012;2023-02-19T09:12:53;10.40;99.90
18581;DHT22;9420;50.876;7.012;2023-02-19T09:15:20;10.50;99.90
18581;DHT22;9420;50.876;7.012;2023-02-19T09:17:50;10.50;99.90
18581;DHT22;9420;50.876;7.012;2023-02-19T09:20:18;10.60;99.90
18581;DHT22;9420;50.876;7.012;2023-02-19T09:22:45;10.60;99.90
18581;DHT22;9420;50.876;7.012;2023-02-19T09:25:12;10.60;99.90
18581;DHT22;9420;50.876;7.012;2023-02-19T09:27:43;10.60;99.90
18581;DHT22;9420;50.876;7.012;2023-02-19T09:30:10;10.60;99.90
18581;DHT22;9420;50.876;7.012;2023-02-19T09:32:38;10.60;99.90
18581;DHT22;9420;50.876;7.012;2023-02-19T09:35:05;10.60;99.90
18581;DHT22;9420;50.876;7.012;2023-02-19T09:37:33;10.60;99.90
18581;DHT22;9420;50.876;7.012;2023-02-19T09:40:00;10.60;99.90
18581;DHT22;9420;50.876;7.012;2023-02-19T09:42:28;10.60;99.90
18581;DHT22;9420;50.876;7.012;2023-02-19T09:45:00;10.60;99.90
18581;DHT22;9420;50.876;7.012;2023-02-19T09:47:32;10.70;99.90
18581;DHT22;9420;50.876;7.012;2023-02-19T09:50:04;10.70;99.90
18581;DHT22;9420;50.876;7.012;2023-02-19T09:52:37;10.70;99.90
18581;DHT22;9420;50.876;7.012;2023-02-19T09:55:14;10.70;99.90
18581;DHT22;9420;50.876;7.012;2023-02-19T09:57:46;10.60;99.90
18581;DHT22;9420;50.876;7.012;2023-02-19T10:00:22;10.50;99.90
18581;DHT22;9420;50.876;7.012;2023-02-19T10:02:52;10.50;99.90
18581;DHT22;9420;50.876;7.012;2023-02-19T10:05:26;10.50;99.90
18581;DHT22;9420;50.876;7.012;2023-02-19T10:07:54;10.50;99.90
18581;DHT22;9420;50.876;7.012;2023-02-19T10:10:28;10.50;99.90
18581;DHT22;9420;50.876;7.012;2023-02-19T10:13:10;10.50;99.90
18581;DHT22;9420;50.876;7.012;2023-02-19T10:15:48;10.50;99.90
18581;DHT22;9420;50.876;7.012;2023-02-19T10:18:19;10.50;99.90
18581;DHT22;9420;50.876;7.012;2023-02-19T10:20:50;10.30;99.90
18581;DHT22;9420;50.876;7.012;2023-02-19T10:23:19;10.40;99.90
18581;DHT22;9420;50.876;7.012;2023-02-19T10:25:49;10.50;99.90
18581;DHT22;9420;50.876;7.012;2023-02-19T10:28:24;10.50;99.90
18581;DHT22;9420;50.876;7.012;2023-02-19T10:30:58;10.60;99.90
18581;DHT22;9420;50.876;7.012;2023-02-19T10:33:27;10.70;99.90
18581;DHT22;9420;50.876;7.012;2023-02-19T10:35:56;10.80;99.90
18581;DHT22;9420;50.876;7.012;2023-02-19T10:38:27;10.80;99.90
18581;DHT22;9420;50.876;7.012;2023-02-19T10:40:59;10.90;99.90
18581;DHT22;9420;50.876;7.012;2023-02-19T10:43:33;10.80;99.90
18581;DHT22;9420;50.876;7.012;2023-02-19T10:46:13;10.90;99.90
18581;DHT22;9420;50.876;7.012;2023-02-19T10:48:46;10.90;99.90
18581;DHT22;9420;50.876;7.012;2023-02-19T10:51:18;10.90;99.90
18581;DHT22;9420;50.876;7.012;2023-02-19T10:53:48;10.80;99.90
18581;DHT22;9420;50.876;7.012;2023-02-19T10:56:23;10.80;99.90
18581;DHT22;9420;50.876;7.012;2023-02-19T10:58:52;10.70;99.90
18581;DHT22;9420;50.876;7.012;2023-02-19T11:01:23;10.60;99.90
18581;DHT22;9420;50.876;7.012;2023-02-19T11:03:52;10.70;99.90
18581;DHT22;9420;50.876;7.012;2023-02-19T11:06:40;10.70;99.90
18581;DHT22;9420;50.876;7.012;2023-02-19T11:09:23;10.70;99.90
18581;DHT22;9420;50.876;7.012;2023-02-19T11:11:54;10.80;99.90
18581;DHT22;9420;50.876;7.012;2023-02-19T11:14:24;10.90;99.90
18581;DHT22;9420;50.876;7.012;2023-02-19T11:16:57;11.00;99.90
18581;DHT22;9420;50.876;7.012;2023-02-19T11:19:32;11.10;99.90
18581;DHT22;9420;50.876;7.012;2023-02-19T11:22:17;11.10;99.90
18581;DHT22;9420;50.876;7.012;2023-02-19T11:24:49;11.10;99.90
18581;DHT22;9420;50.876;7.012;2023-02-19T11:27:19;11.20;99.90
18581;DHT22;9420;50.876;7.012;2023-02-19T11:29:48;11.10;99.90
18581;DHT22;9420;50.876;7.012;2023-02-19T11:32:23;11.10;99.90
18581;DHT22;9420;50.876;7.012;2023-02-19T11:35:13;11.00;99.90
18581;DHT22;9420;50.876;7.012;2023-02-19T11:37:53;10.90;99.90
18581;DHT22;9420;50.876;7.012;2023-02-19T11:40:28;10.80;99.90
18581;DHT22;9420;50.876;7.012;2023-02-19T11:43:09;10.80;99.90
18581;DHT22;9420;50.876;7.012;2023-02-19T11:45:51;10.90;99.90
18581;DHT22;9420;50.876;7.012;2023-02-19T11:48:46;10.90;99.90
18581;DHT22;9420;50.876;7.012;2023-02-19T11:51:42;11.00;99.90
18581;DHT22;9420;50.876;7.012;2023-02-19T11:54:31;10.90;99.90
18581;DHT22;9420;50.876;7.012;2023-02-19T11:57:17;11.00;99.90
18581;DHT22;9420;50.876;7.012;2023-02-19T12:00:00;10.80;99.90
18581;DHT22;9420;50.876;7.012;2023-02-19T12:06:08;10.70;99.90
18581;DHT22;9420;50.876;7.012;2023-02-19T12:09:06;10.70;99.90
18581;DHT22;9420;50.876;7.012;2023-02-19T12:12:02;10.80;99.90
18581;DHT22;9420;50.876;7.012;2023-02-19T12:15:05;10.80;99.90
18581;DHT22;9420;50.876;7.012;2023-02-19T12:18:07;11.00;99.90
18581;DHT22;9420;50.876;7.012;2023-02-19T12:20:52;11.00;99.90
18581;DHT22;9420;50.876;7.012;2023-02-19T12:23:59;11.10;99.90
18581;DHT22;9420;50.876;7.012;2023-02-19T12:26:54;11.40;99.90
18581;DHT22;9420;50.876;7.012;2023-02-19T12:29:44;11.50;99.90
18581;DHT22;9420;50.876;7.012;2023-02-19T12:32:30;11.80;99.90
18581;DHT22;9420;50.876;7.012;2023-02-19T12:35:24;12.30;99.90
18581;DHT22;9420;50.876;7.012;2023-02-19T12:38:06;12.70;99.90
18581;DHT22;9420;50.876;7.012;2023-02-19T12:41:03;13.80;99.90
18581;DHT22;9420;50.876;7.012;2023-02-19T12:43:45;14.20;99.90
18581;DHT22;9420;50.876;7.012;2023-02-19T12:46:22;14.40;99.90
18581;DHT22;9420;50.876;7.012;2023-02-19T12:48:58;13.90;99.90
18581;DHT22;9420;50.876;7.012;2023-02-19T12:51:38;13.30;99.90
18581;DHT22;9420;50.876;7.012;2023-02-19T12:54:13;13.20;99.90
18581;DHT22;9420;50.876;7.012;2023-02-19T12:56:51;13.30;99.90
18581;DHT22;9420;50.876;7.012;2023-02-19T12:59:28;13.80;99.90
18581;DHT22;9420;50.876;7.012;2023-02-19T13:02:03;13.80;99.90
18581;DHT22;9420;50.876;7.012;2023-02-19T13:04:42;13.10;99.90
18581;DHT22;9420;50.876;7.012;2023-02-19T13:07:19;12.80;99.90
18581;DHT22;9420;50.876;7.012;2023-02-19T13:09:51;12.50;99.90
18581;DHT22;9420;50.876;7.012;2023-02-19T13:12:28;12.10;99.90
18581;DHT22;9420;50.876;7.012;2023-02-19T13:15:01;11.70;99.90
18581;DHT22;9420;50.876;7.012;2023-02-19T13:17:35;11.70;99.90
18581;DHT22;9420;50.876;7.012;2023-02-19T13:20:23;11.70;99.90
18581;DHT22;9420;50.876;7.012;2023-02-19T13:22:59;11.50;99.90
18581;DHT22;9420;50.876;7.012;2023-02-19T13:26:03;11.20;99.90
18581;DHT22;9420;50.876;7.012;2023-02-19T13:28:58;11.10;99.90
18581;DHT22;9420;50.876;7.012;2023-02-19T13:31:53;10.80;99.90
18581;DHT22;9420;50.876;7.012;2023-02-19T13:34:41;10.70;99.90
18581;DHT22;9420;50.876;7.012;2023-02-19T13:37:19;10.60;99.90
18581;DHT22;9420;50.876;7.012;2023-02-19T13:39:50;10.30;99.90
18581;DHT22;9420;50.876;7.012;2023-02-19T13:42:24;10.20;99.90
18581;DHT22;9420;50.876;7.012;2023-02-19T13:44:54;10.10;99.90
18581;DHT22;9420;50.876;7.012;2023-02-19T13:47:45;9.90;99.90
18581;DHT22;9420;50.876;7.012;2023-02-19T13:50:26;10.00;99.90
18581;DHT22;9420;50.876;7.012;2023-02-19T13:52:54;10.00;99.90
18581;DHT22;9420;50.876;7.012;2023-02-19T13:55:45;10.00;99.90
18581;DHT22;9420;50.876;7.012;2023-02-19T13:58:35;10.00;99.90
18581;DHT22;9420;50.876;7.012;2023-02-19T14:04:57;10.00;99.90
18581;DHT22;9420;50.876;7.012;2023-02-19T14:13:55;10.00;99.90
18581;DHT22;9420;50.876;7.012;2023-02-19T14:16:55;10.00;99.90
18581;DHT22;9420;50.876;7.012;2023-02-19T14:19:50;10.00;99.90
18581;DHT22;9420;50.876;7.012;2023-02-19T14:25:53;10.00;99.90
18581;DHT22;9420;50.876;7.012;2023-02-19T14:28:29;10.10;99.90
18581;DHT22;9420;50.876;7.012;2023-02-19T14:31:18;10.10;99.90
18581;DHT22;9420;50.876;7.012;2023-02-19T14:33:51;10.30;99.90
18581;DHT22;9420;50.876;7.012;2023-02-19T14:36:43;10.30;99.90
18581;DHT22;9420;50.876;7.012;2023-02-19T14:39:16;10.30;99.90
18581;DHT22;9420;50.876;7.012;2023-02-19T14:41:48;10.40;99.90
18581;DHT22;9420;50.876;7.012;2023-02-19T14:44:21;10.40;99.90
18581;DHT22;9420;50.876;7.012;2023-02-19T14:46:55;10.50;99.90
18581;DHT22;9420;50.876;7.012;2023-02-19T14:49:28;10.50;99.90
18581;DHT22;9420;50.876;7.012;2023-02-19T14:52:03;10.50;99.90
18581;DHT22;9420;50.876;7.012;2023-02-19T14:54:42;10.50;99.90
18581;DHT22;9420;50.876;7.012;2023-02-19T14:57:16;10.50;99.90
18581;DHT22;9420;50.876;7.012;2023-02-19T14:59:53;10.60;99.90
18581;DHT22;9420;50.876;7.012;2023-02-19T15:02:24;10.50;99.90
18581;DHT22;9420;50.876;7.012;2023-02-19T15:04:52;10.50;99.90
18581;DHT22;9420;50.876;7.012;2023-02-19T15:07:23;10.40;99.90
18581;DHT22;9420;50.876;7.012;2023-02-19T15:09:57;10.50;99.90
18581;DHT22;9420;50.876;7.012;2023-02-19T15:12:31;10.50;99.90
18581;DHT22;9420;50.876;7.012;2023-02-19T15:15:02;10.40;99.90
18581;DHT22;9420;50.876;7.012;2023-02-19T15:17:33;10.40;99.90
18581;DHT22;9420;50.876;7.012;2023-02-19T15:20:10;10.40;99.90
18581;DHT22;9420;50.876;7.012;2023-02-19T15:22:44;10.30;99.90
18581;DHT22;9420;50.876;7.012;2023-02-19T15:25:16;10.30;99.90
18581;DHT22;9420;50.876;7.012;2023-02-19T15:27:44;10.20;99.90
18581;DHT22;9420;50.876;7.012;2023-02-19T15:30:20;10.20;99.90
18581;DHT22;9420;50.876;7.012;2023-02-19T15:32:53;10.20;99.90
18581;DHT22;9420;50.876;7.012;2023-02-19T15:35:22;10.20;99.90
18581;DHT22;9420;50.876;7.012;2023-02-19T15:37:53;10.20;99.90
18581;DHT22;9420;50.876;7.012;2023-02-19T15:40:25;10.20;99.90
18581;DHT22;9420;50.876;7.012;2023-02-19T15:42:56;10.20;99.90
18581;DHT22;9420;50.876;7.012;2023-02-19T15:45:27;10.20;99.90
18581;DHT22;9420;50.876;7.012;2023-02-19T15:48:05;10.20;99.90
18581;DHT22;9420;50.876;7.012;2023-02-19T15:50:38;10.20;99.90
18581;DHT22;9420;50.876;7.012;2023-02-19T15:53:13;10.10;99.90
18581;DHT22;9420;50.876;7.012;2023-02-19T15:55:46;10.10;99.90
18581;DHT22;9420;50.876;7.012;2023-02-19T15:58:22;10.10;99.90
18581;DHT22;9420;50.876;7.012;2023-02-19T16:00:57;10.10;99.90
18581;DHT22;9420;50.876;7.012;2023-02-19T16:03:30;10.10;99.90
18581;DHT22;9420;50.876;7.012;2023-02-19T16:06:00;10.20;99.90
18581;DHT22;9420;50.876;7.012;2023-02-19T16:08:31;10.10;99.90
18581;DHT22;9420;50.876;7.012;2023-02-19T16:11:02;10.10;99.90
18581;DHT22;9420;50.876;7.012;2023-02-19T16:13:32;10.10;99.90
18581;DHT22;9420;50.876;7.012;2023-02-19T16:16:05;10.10;99.90
18581;DHT22;9420;50.876;7.012;2023-02-19T16:18:43;10.10;99.90
18581;DHT22;9420;50.876;7.012;2023-02-19T16:21:14;10.10;99.90
18581;DHT22;9420;50.876;7.012;2023-02-19T16:23:48;10.10;99.90
18581;DHT22;9420;50.876;7.012;2023-02-19T16:26:19;10.10;99.90
18581;DHT22;9420;50.876;7.012;2023-02-19T16:28:49;10.10;99.90
18581;DHT22;9420;50.876;7.012;2023-02-19T16:31:20;10.00;99.90
18581;DHT22;9420;50.876;7.012;2023-02-19T16:33:50;10.00;99.90
18581;DHT22;9420;50.876;7.012;2023-02-19T16:36:23;10.00;99.90
18581;DHT22;9420;50.876;7.012;2023-02-19T16:39:14;10.00;99.90
18581;DHT22;9420;50.876;7.012;2023-02-19T16:42:16;10.00;99.90
18581;DHT22;9420;50.876;7.012;2023-02-19T16:44:45;10.00;99.90
18581;DHT22;9420;50.876;7.012;2023-02-19T16:47:26;10.00;99.90